Alma, CO (80420)

10:40 AM MDT on August 30, 2015 (GMT -0600)
Valley of the Sun | | Change Station
CLOSE
Current Station
Personal Weather Station
Location: Fairplay, CO
Elevation: 11000 ft
Nearby Weather Stations

Elev 11000 ft 39.24 °N, 106.11 °W | Updated 10 minutes ago

Clear
Clear
61.0 °F
Feels Like 61.0 °F
N
3.0
Wind Variable Wind from WNW
Gusts 3.0 mph

Today
High -- | Low -- °F
--% Chance of Precip.
Yesterday
High -- | Low -- °F
Precip. -- in
6:30 AM 7:38 PM
Full, 99% visible
Pressure 30.68 in
Visibility 10.0 miles
Clouds Scattered Clouds 5000 ft
Dew Point 34 °F
Humidity 37%
Rainfall 0.00 in
Snow Depth Not available.
UV 6 out of 12
Pollen 10.60 out of 12
Air Quality Not available.
Flu Activity Not available.
METAR KCCU 301633Z AUTO 28015G20KT 10SM SCT050 15/M01 A3068 RMK AO2
Pressure 30.68 in
Visibility 10.0 miles
Clouds Scattered Clouds 5000 ft
Dew Point 34 °F
Humidity 37%
Rainfall 0.00 in
Snow Depth Not available.
UV 6 out of 12
Pollen 10.60 out of 12
Air Quality Not available.
Flu Activity Not available.
METAR KCCU 301633Z AUTO 28015G20KT 10SM SCT050 15/M01 A3068 RMK AO2

10-Day Weather Forecast

×

Almanac

Astronomy

Aug. 30, 2015 Rise Set
Actual Time
Civil Twilight
Nautical Twilight
Astronomical Twilight
Moon
Length of Visible Light
Length of Day
Tomorrow will be .
, % of the Moon is Illuminated

Today's Extremes

State Highs State Lows

Community

WunderPhotos

Upload Photos

1,851,008 photos uploaded!

WunderBlogs® & News

Nearby

Air Quality

  Air Quality AQ Index Pollutant
Not available.

Snow Depth

Station Depth Elevation

Earthquake Activity

City Distance Mag. Time & Date
Minimum magnitude displayed is 2.5.

Coastal Water Temperatures

Place Temperature

Stations

Nearby Weather Stations

Station Location Temp. Windchill Dew Point Humidity Wind Precip. Elev Updated Type